Main page
METAR-TAF:

METAR-TAF

Airports :

Ouagadougou Airport

Ouagadougou, Burkina Faso

latitude: 12-21N, longitude: 001-31W, elevation: 316 m

Current weather observation

The report was made 44 minutes ago, at 07:00 UTC
Wind 2 kt from the North/Northeast
Temperature 21°C
Humidity 69%
Pressure 1013 hPa
Visibility: 2100 m
haze

METAR: DFFD 170700Z 02002KT 2100 HZ NSC 21/15 Q1013 TEMPO 1400 HZ

Time: 07:44 (07:44 UTC)

Forecast

The report was made 2 hours and 44 minutes ago, at 05:00 UTC
Forecast valid from 17 at 06 UTC to 18 at 12 UTC
Wind 8 kt from variable directions
Visibility: 8000 m
Temporary
from 17 at 06 UTC to 17 at 10 UTC
Visibility: 2000 m
haze
Temporary
from 17 at 17 UTC to 17 at 20 UTC
Visibility: 4500 m
haze
Temporary
from 18 at 06 UTC to 18 at 10 UTC
Visibility: 2000 m
haze

TAF: DFFD 170500Z 1706/1812 VRB08KT 8000 NSC TEMPO 1706/1710 2000 HZ TEMPO 1717/1720 4500 HZ TEMPO 1806/1810 2000 HZ

Weather observations and forecasts of more than 4000 airports (METAR and TAF reports).

The available stations are represented by yellow and red dots on the map.

Hover mouse over dot to see the name of the station.

Then click to see weather observations and forecasts.

To change the map : click on the green buttons with a black cross to zoom in, on the green button with a dash to zoom out, or on the green arrows for adjacent maps.


METAR-TAF: